Time;durP1;ratioP1;P1;durP2;ratioP2;P2;SDS_P1;SDS_P2;PMS_P1;PMS_P2;Temp;Humidity;BMP_temperature;BMP_pressure;BME280_temperature;BME280_humidity;BME280_pressure;Samples;Min_cycle;Max_cycle;Signal;HPM_P1;HPM_P2
2022/07/24 00:00:17;;;;;;;22.80;19.03;;;20.70;60.50;;;;;;5061186;28;46385;-67
2022/07/24 00:02:43;;;;;;;24.30;17.93;;;20.60;60.70;;;;;;5059142;28;46468;-67
2022/07/24 00:05:09;;;;;;;24.00;18.40;;;20.50;61.20;;;;;;5061329;28;46290;-67
2022/07/24 00:07:36;;;;;;;28.00;17.60;;;20.50;61.20;;;;;;5060754;28;46399;-67
2022/07/24 00:10:04;;;;;;;24.17;19.10;;;20.40;61.10;;;;;;5059474;28;46522;-67
2022/07/24 00:12:29;;;;;;;18.57;15.13;;;20.30;61.10;;;;;;5059763;28;46288;-67
2022/07/24 00:14:55;;;;;;;24.00;16.40;;;20.20;61.40;;;;;;5059406;28;45904;-67
2022/07/24 00:17:20;;;;;;;21.77;15.53;;;20.10;61.90;;;;;;5061094;28;46662;-66
2022/07/24 00:19:46;;;;;;;22.07;16.30;;;20.10;62.30;;;;;;5060401;28;46348;-66
2022/07/24 00:22:12;;;;;;;20.70;16.00;;;19.90;62.30;;;;;;5060066;28;46517;-66
2022/07/24 00:24:37;;;;;;;23.50;18.10;;;19.80;62.50;;;;;;5058041;28;46347;-66
2022/07/24 00:27:03;;;;;;;22.40;15.60;;;19.80;62.70;;;;;;5059698;28;46311;-66
2022/07/24 00:29:28;;;;;;;31.80;17.40;;;19.70;62.90;;;;;;5059625;28;46072;-66
2022/07/24 00:31:54;;;;;;;25.73;17.30;;;19.70;63.00;;;;;;5058813;28;46353;-66
2022/07/24 00:34:20;;;;;;;25.50;17.60;;;19.80;63.10;;;;;;5060012;28;46371;-66
2022/07/24 00:36:45;;;;;;;26.00;19.10;;;19.80;62.90;;;;;;5059682;28;46428;-66
2022/07/24 00:39:11;;;;;;;24.70;18.60;;;19.80;63.50;;;;;;5059092;28;47034;-66
2022/07/24 00:41:37;;;;;;;26.93;19.23;;;19.80;62.30;;;;;;5060248;28;46380;-66
2022/07/24 00:44:08;;;;;;;27.30;17.43;;;19.80;62.10;;;;;;5059588;28;46439;-66
2022/07/24 00:46:36;;;;;;;31.50;18.90;;;19.90;62.00;;;;;;5063476;28;45774;-66
2022/07/24 00:49:04;;;;;;;25.77;17.90;;;20.00;61.70;;;;;;5065103;28;47099;-66
2022/07/24 00:51:29;;;;;;;27.70;18.17;;;20.10;61.30;;;;;;5063574;28;46485;-66
2022/07/24 00:53:55;;;;;;;23.13;17.60;;;20.10;61.00;;;;;;5063415;28;46643;-66
2022/07/24 00:56:21;;;;;;;26.83;18.63;;;20.10;60.90;;;;;;5063305;28;46478;-66
2022/07/24 00:58:47;;;;;;;27.93;17.67;;;20.10;61.10;;;;;;5060824;28;46417;-66
2022/07/24 01:01:14;;;;;;;25.10;18.47;;;20.10;61.40;;;;;;5061461;28;46350;-66
2022/07/24 01:03:39;;;;;;;23.80;17.90;;;20.00;61.80;;;;;;5060379;28;46665;-66
2022/07/24 01:06:06;;;;;;;28.00;18.77;;;20.00;62.20;;;;;;5061623;28;46377;-66
2022/07/24 01:08:34;;;;;;;28.13;18.20;;;20.00;62.40;;;;;;5064831;28;46616;-66
2022/07/24 01:11:01;;;;;;;28.13;17.67;;;19.90;62.50;;;;;;5062245;28;46358;-66
2022/07/24 01:13:26;;;;;;;31.57;16.40;;;19.90;62.70;;;;;;5060203;28;46495;-66
2022/07/24 01:15:52;;;;;;;31.03;18.10;;;19.80;62.90;;;;;;5063222;28;46002;-66
2022/07/24 01:18:17;;;;;;;21.40;16.87;;;19.80;63.20;;;;;;5064145;28;46987;-66
2022/07/24 01:20:47;;;;;;;25.50;16.57;;;19.70;63.20;;;;;;5064819;28;46237;-66
2022/07/24 01:23:13;;;;;;;29.40;16.50;;;19.60;63.50;;;;;;5063029;28;45851;-66
2022/07/24 01:25:39;;;;;;;25.53;16.43;;;19.50;63.70;;;;;;5064032;28;46565;-66
2022/07/24 01:28:04;;;;;;;21.10;16.10;;;19.50;64.00;;;;;;5061854;28;45970;-66
2022/07/24 01:30:30;;;;;;;20.63;14.67;;;19.40;64.10;;;;;;5063551;28;46388;-66
2022/07/24 01:32:56;;;;;;;18.20;14.23;;;19.40;64.30;;;;;;5063549;28;46370;-67
2022/07/24 01:35:21;;;;;;;22.20;16.10;;;19.30;64.50;;;;;;5062376;28;46532;-67
2022/07/24 01:37:47;;;;;;;25.07;16.80;;;19.20;64.60;;;;;;5064937;28;46101;-67
2022/07/24 01:40:13;;;;;;;23.37;17.50;;;19.10;64.60;;;;;;5062834;28;46433;-67
2022/07/24 01:42:38;;;;;;;22.83;16.00;;;19.10;64.70;;;;;;5061899;28;46354;-66
2022/07/24 01:45:04;;;;;;;24.60;15.93;;;19.10;64.70;;;;;;5062150;28;46368;-66
2022/07/24 01:47:30;;;;;;;21.97;15.53;;;19.10;64.70;;;;;;5061941;28;47138;-67
2022/07/24 01:49:56;;;;;;;26.30;15.30;;;19.10;64.70;;;;;;5061864;28;46490;-66
2022/07/24 01:52:24;;;;;;;24.57;15.60;;;19.00;64.70;;;;;;5060365;28;46468;-66
2022/07/24 01:54:51;;;;;;;22.50;16.23;;;19.00;64.70;;;;;;5064466;28;46668;-67
2022/07/24 01:57:17;;;;;;;19.77;15.40;;;19.00;64.80;;;;;;5063060;28;46398;-66
2022/07/24 01:59:43;;;;;;;34.37;15.80;;;18.90;64.70;;;;;;5060611;28;46463;-66
2022/07/24 02:02:08;;;;;;;22.83;15.67;;;18.90;64.70;;;;;;5061852;28;46460;-66
2022/07/24 02:04:34;;;;;;;24.67;15.60;;;18.90;64.80;;;;;;5062396;28;45933;-67
2022/07/24 02:07:00;;;;;;;30.00;15.50;;;18.90;64.90;;;;;;5060096;28;46400;-67
2022/07/24 02:09:25;;;;;;;17.90;14.10;;;18.80;65.00;;;;;;5061742;28;46397;-66
2022/07/24 02:11:51;;;;;;;21.50;15.23;;;18.80;65.00;;;;;;5061673;28;46612;-66
2022/07/24 02:14:17;;;;;;;20.77;16.13;;;18.70;65.00;;;;;;5062248;28;46318;-66
2022/07/24 02:16:42;;;;;;;20.97;15.63;;;18.70;65.10;;;;;;5060865;28;46448;-66
2022/07/24 02:19:08;;;;;;;21.77;15.10;;;18.60;65.10;;;;;;5061624;28;46456;-66
2022/07/24 02:21:34;;;;;;;30.70;16.30;;;18.60;65.20;;;;;;5061303;28;46463;-66
2022/07/24 02:24:00;;;;;;;28.07;16.07;;;18.60;65.40;;;;;;5063375;28;46449;-67
2022/07/24 02:26:27;;;;;;;26.30;15.97;;;18.50;65.40;;;;;;5061209;28;46312;-66
2022/07/24 02:28:53;;;;;;;26.00;15.40;;;18.40;65.60;;;;;;5060273;28;46519;-66
2022/07/24 02:31:18;;;;;;;21.07;15.07;;;18.40;65.80;;;;;;5061757;28;46386;-66
2022/07/24 02:33:44;;;;;;;32.20;15.80;;;18.40;65.70;;;;;;5062185;28;46443;-66
2022/07/24 02:36:09;;;;;;;31.87;17.07;;;18.40;65.60;;;;;;5060842;28;46677;-66
2022/07/24 02:38:35;;;;;;;30.70;17.00;;;18.30;65.50;;;;;;5060848;28;46618;-66
2022/07/24 02:41:01;;;;;;;47.60;17.00;;;18.40;65.60;;;;;;5061799;28;46415;-66
2022/07/24 02:43:26;;;;;;;20.60;15.93;;;18.30;65.70;;;;;;5062108;28;46421;-66
2022/07/24 02:45:52;;;;;;;26.60;16.90;;;18.30;65.70;;;;;;5069704;28;47318;-66
2022/07/24 02:48:17;;;;;;;25.87;16.50;;;18.30;65.50;;;;;;5060594;28;46502;-66
2022/07/24 02:50:43;;;;;;;25.00;16.07;;;18.40;65.60;;;;;;5061629;28;46364;-66
2022/07/24 02:53:09;;;;;;;26.87;17.97;;;18.40;65.40;;;;;;5060453;28;46378;-66
2022/07/24 02:55:34;;;;;;;26.03;17.60;;;18.40;65.40;;;;;;5061094;28;47132;-67
2022/07/24 02:58:00;;;;;;;28.80;18.10;;;18.40;65.30;;;;;;5059895;28;45838;-66
2022/07/24 03:00:25;;;;;;;27.67;17.43;;;18.40;65.40;;;;;;5060321;28;46362;-66
2022/07/24 03:02:52;;;;;;;33.43;17.67;;;18.40;65.50;;;;;;5062666;28;46508;-66
2022/07/24 03:05:18;;;;;;;32.70;17.03;;;18.40;65.50;;;;;;5059020;28;46382;-66
2022/07/24 03:07:44;;;;;;;24.13;16.17;;;18.40;65.60;;;;;;5058302;28;46353;-66
2022/07/24 03:10:12;;;;;;;24.70;15.63;;;18.40;65.80;;;;;;5061070;28;46435;-66
2022/07/24 03:12:38;;;;;;;23.03;15.77;;;18.40;65.80;;;;;;5060528;28;46701;-66
2022/07/24 03:15:04;;;;;;;25.90;16.47;;;18.30;65.80;;;;;;5061204;28;46998;-65
2022/07/24 03:17:29;;;;;;;23.67;16.03;;;18.30;65.90;;;;;;5060722;28;45845;-67
2022/07/24 03:19:55;;;;;;;23.90;16.90;;;18.30;66.10;;;;;;5060347;28;46643;-67
2022/07/24 03:22:20;;;;;;;26.50;15.80;;;18.30;66.10;;;;;;5060852;28;46108;-66
2022/07/24 03:24:46;;;;;;;19.43;15.10;;;18.30;66.20;;;;;;5061315;28;48176;-66
2022/07/24 03:27:12;;;;;;;29.40;17.23;;;18.20;66.10;;;;;;5060756;28;45905;-66
2022/07/24 03:29:37;;;;;;;23.03;17.20;;;18.20;66.10;;;;;;5060678;28;46437;-66
2022/07/24 03:32:03;;;;;;;23.43;16.57;;;18.20;66.00;;;;;;5060112;28;46325;-66
2022/07/24 03:34:29;;;;;;;26.50;17.60;;;18.20;66.10;;;;;;5060672;28;47086;-66
2022/07/24 03:36:54;;;;;;;27.03;17.23;;;18.20;66.10;;;;;;5059733;28;46442;-66
2022/07/24 03:39:20;;;;;;;22.10;15.70;;;18.10;66.20;;;;;;5060044;28;46752;-66
2022/07/24 03:41:46;;;;;;;17.73;14.17;;;18.10;66.40;;;;;;5060661;28;45997;-66
2022/07/24 03:44:11;;;;;;;20.00;15.47;;;18.10;66.40;;;;;;5059584;28;47030;-66
2022/07/24 03:46:37;;;;;;;24.40;16.53;;;18.10;66.40;;;;;;5057309;28;46440;-65
2022/07/24 03:49:03;;;;;;;18.43;14.27;;;18.00;66.40;;;;;;5060839;28;46433;-66
2022/07/24 03:51:28;;;;;;;23.33;16.30;;;18.00;66.60;;;;;;5059334;28;46472;-66
2022/07/24 03:53:54;;;;;;;22.53;16.80;;;17.90;66.60;;;;;;5060020;28;47111;-66
2022/07/24 03:56:20;;;;;;;27.83;18.53;;;18.00;66.50;;;;;;5059746;28;45871;-66
2022/07/24 03:58:45;;;;;;;29.97;19.03;;;18.00;66.40;;;;;;5060414;28;46420;-66
2022/07/24 04:01:11;;;;;;;31.63;20.47;;;18.00;66.40;;;;;;5059655;28;46589;-66
2022/07/24 04:03:37;;;;;;;28.30;19.87;;;18.00;66.40;;;;;;5059878;28;46473;-66
2022/07/24 04:06:06;;;;;;;27.13;20.33;;;18.10;66.40;;;;;;5060273;28;46311;-67
2022/07/24 04:08:33;;;;;;;26.87;17.37;;;18.10;66.50;;;;;;5059293;28;46427;-67
2022/07/24 04:10:59;;;;;;;23.57;14.77;;;18.10;66.50;;;;;;5061111;28;46514;-67
2022/07/24 04:13:26;;;;;;;21.70;14.00;;;18.10;66.60;;;;;;5060063;28;47157;-67
2022/07/24 04:15:53;;;;;;;20.63;12.53;;;18.10;66.60;;;;;;5058863;28;46269;-67
2022/07/24 04:18:19;;;;;;;33.37;16.60;;;18.10;66.50;;;;;;5058875;28;46341;-66
2022/07/24 04:20:44;;;;;;;26.00;14.57;;;18.10;66.40;;;;;;5059410;28;45891;-66
2022/07/24 04:23:10;;;;;;;30.33;12.67;;;18.10;66.30;;;;;;5059928;28;46464;-66
2022/07/24 04:25:35;;;;;;;34.30;12.20;;;18.10;66.20;;;;;;5062121;28;46342;-66
2022/07/24 04:28:02;;;;;;;27.80;12.03;;;18.10;66.20;;;;;;5057745;28;46419;-66
2022/07/24 04:30:27;;;;;;;27.30;16.30;;;18.10;65.90;;;;;;5059058;28;46418;-66
2022/07/24 04:32:53;;;;;;;31.37;17.50;;;18.20;65.50;;;;;;5059988;28;46359;-66
2022/07/24 04:35:18;;;;;;;24.90;17.83;;;18.30;65.00;;;;;;5055646;28;46354;-66
2022/07/24 04:37:45;;;;;;;38.83;15.97;;;18.40;64.60;;;;;;5059727;28;45881;-67
2022/07/24 04:40:12;;;;;;;36.33;14.13;;;18.50;64.50;;;;;;5059333;28;46494;-66
2022/07/24 04:42:37;;;;;;;30.10;14.37;;;18.60;64.60;;;;;;5057117;28;46243;-67
2022/07/24 04:45:04;;;;;;;29.83;14.57;;;18.70;64.40;;;;;;5059585;28;46464;-67
2022/07/24 04:47:30;;;;;;;28.70;14.67;;;18.70;64.10;;;;;;5059208;28;46808;-67
2022/07/24 04:49:56;;;;;;;25.27;13.07;;;18.80;64.10;;;;;;5059615;28;46444;-67
2022/07/24 04:52:21;;;;;;;24.17;14.10;;;18.80;63.80;;;;;;5058427;28;47874;-67
2022/07/24 04:54:47;;;;;;;27.20;13.03;;;18.90;63.50;;;;;;5058237;28;45806;-66
2022/07/24 04:57:12;;;;;;;26.80;14.77;;;19.10;63.30;;;;;;5058590;28;45891;-67
2022/07/24 04:59:38;;;;;;;31.37;13.40;;;19.20;63.00;;;;;;5059846;28;46669;-66
2022/07/24 05:02:03;;;;;;;25.50;14.07;;;19.30;62.60;;;;;;5057273;28;46409;-66
2022/07/24 05:04:29;;;;;;;29.60;14.63;;;19.80;62.20;;;;;;5057821;28;46457;-68
2022/07/24 05:06:54;;;;;;;21.63;11.80;;;20.70;61.50;;;;;;5056109;28;46485;-66
2022/07/24 05:09:20;;;;;;;27.37;12.50;;;21.70;60.00;;;;;;5057813;28;46355;-66
2022/07/24 05:11:46;;;;;;;20.50;10.97;;;22.40;58.40;;;;;;5057442;28;46342;-67
2022/07/24 05:14:11;;;;;;;23.50;10.70;;;23.10;56.80;;;;;;5057214;28;46421;-66
2022/07/24 05:16:37;;;;;;;21.00;10.60;;;23.70;55.00;;;;;;5058147;28;46699;-66
2022/07/24 05:19:03;;;;;;;22.43;11.90;;;24.20;53.30;;;;;;5057215;28;45985;-66
2022/07/24 05:21:28;;;;;;;26.10;11.80;;;24.70;52.00;;;;;;5059151;28;46363;-66
2022/07/24 05:23:54;;;;;;;16.70;10.30;;;25.30;50.70;;;;;;5058577;28;46446;-66
2022/07/24 05:26:19;;;;;;;20.10;11.87;;;25.80;48.90;;;;;;5058723;28;46378;-66
2022/07/24 05:28:45;;;;;;;24.07;12.13;;;26.20;47.00;;;;;;5056715;28;46387;-66
2022/07/24 05:31:11;;;;;;;19.03;10.83;;;26.70;45.10;;;;;;5056221;28;47188;-66
2022/07/24 05:33:36;;;;;;;18.80;10.53;;;27.20;43.10;;;;;;5059329;28;46516;-66
2022/07/24 05:36:02;;;;;;;16.50;11.33;;;27.50;41.10;;;;;;5061939;28;46603;-66
2022/07/24 05:38:28;;;;;;;15.93;11.33;;;27.80;40.60;;;;;;5061435;28;46410;-67
2022/07/24 05:40:55;;;;;;;20.23;11.40;;;28.30;38.60;;;;;;5060956;28;47221;-65
2022/07/24 05:43:20;;;;;;;19.93;11.43;;;28.80;36.80;;;;;;5063037;28;46267;-65
2022/07/24 05:45:46;;;;;;;13.93;9.93;;;29.30;35.30;;;;;;5062450;28;46364;-65
2022/07/24 05:48:12;;;;;;;26.30;11.10;;;29.60;33.70;;;;;;5061399;28;46394;-65
2022/07/24 05:50:37;;;;;;;18.93;10.67;;;29.90;32.30;;;;;;5060320;28;48308;-66
2022/07/24 05:53:03;;;;;;;19.53;10.97;;;30.00;31.70;;;;;;5062668;28;45802;-65
2022/07/24 05:55:28;;;;;;;14.77;11.07;;;30.20;31.10;;;;;;5060898;28;46361;-66
2022/07/24 05:57:55;;;;;;;16.90;11.63;;;30.30;30.60;;;;;;5061922;28;46591;-65
2022/07/24 06:00:21;;;;;;;19.50;11.90;;;30.20;30.60;;;;;;5061168;28;46326;-65
2022/07/24 06:02:47;;;;;;;15.00;11.90;;;30.20;30.60;;;;;;5060709;28;46352;-66
2022/07/24 06:05:14;;;;;;;15.70;10.90;;;30.30;30.00;;;;;;5062426;28;46445;-66
2022/07/24 06:07:40;;;;;;;16.67;12.40;;;30.40;29.30;;;;;;5061631;28;46496;-66
2022/07/24 06:10:06;;;;;;;16.30;11.77;;;30.50;28.90;;;;;;5062309;28;46432;-66
2022/07/24 06:12:32;;;;;;;16.70;11.67;;;30.50;29.00;;;;;;5060714;28;46399;-66
2022/07/24 06:14:57;;;;;;;14.43;11.37;;;30.60;28.60;;;;;;5061888;28;46417;-66
2022/07/24 06:17:23;;;;;;;17.73;11.00;;;31.00;27.20;;;;;;5061069;28;45871;-65
2022/07/24 06:19:48;;;;;;;12.57;10.73;;;31.00;26.70;;;;;;5062504;28;45992;-71
2022/07/24 06:22:14;;;;;;;17.37;11.30;;;30.70;27.50;;;;;;5060424;28;46540;-66
2022/07/24 06:24:39;;;;;;;15.87;10.30;;;30.00;29.10;;;;;;5061870;28;46651;-67
2022/07/24 06:27:05;;;;;;;15.80;11.17;;;29.20;31.90;;;;;;5061191;28;46405;-67
2022/07/24 06:29:31;;;;;;;16.90;11.23;;;28.50;34.00;;;;;;5062107;28;47024;-68
2022/07/24 06:31:57;;;;;;;18.37;11.10;;;28.00;35.20;;;;;;5062017;28;46625;-67
2022/07/24 06:34:26;;;;;;;17.13;11.00;;;27.70;35.60;;;;;;5054478;28;46443;-69
2022/07/24 06:36:51;;;;;;;17.60;12.93;;;27.70;35.40;;;;;;5055772;28;46049;-68
2022/07/24 06:39:17;;;;;;;21.90;13.17;;;27.50;35.40;;;;;;5060225;28;46754;-66
2022/07/24 06:41:43;;;;;;;22.00;12.60;;;27.20;35.30;;;;;;5056285;28;45967;-68
2022/07/24 06:44:09;;;;;;;23.10;12.87;;;27.10;35.70;;;;;;5052757;28;46459;-67
2022/07/24 06:46:35;;;;;;;26.17;14.97;;;26.90;36.30;;;;;;5057152;28;46741;-68
2022/07/24 06:49:00;;;;;;;18.30;12.17;;;26.70;36.80;;;;;;5059469;28;47063;-70
2022/07/24 06:51:26;;;;;;;18.40;13.47;;;26.80;36.60;;;;;;5058338;28;46576;-68
2022/07/24 06:53:51;;;;;;;18.43;12.50;;;26.80;35.90;;;;;;5059179;28;46576;-68
2022/07/24 06:56:17;;;;;;;15.83;11.60;;;26.90;35.10;;;;;;5058858;28;46517;-68
2022/07/24 06:58:43;;;;;;;18.60;12.67;;;26.90;34.90;;;;;;5057043;28;47285;-67
2022/07/24 07:01:09;;;;;;;16.40;12.20;;;27.10;33.90;;;;;;5057028;28;46963;-68
2022/07/24 07:03:34;;;;;;;13.70;11.77;;;27.10;34.40;;;;;;5058759;28;46378;-68
2022/07/24 07:06:00;;;;;;;16.93;11.17;;;27.10;32.70;;;;;;5058680;28;46493;-69
2022/07/24 07:08:26;;;;;;;16.57;12.00;;;27.00;32.20;;;;;;5055774;28;46682;-69
2022/07/24 07:10:51;;;;;;;16.90;12.47;;;26.90;32.20;;;;;;5059845;28;46458;-69
2022/07/24 07:13:17;;;;;;;23.60;13.07;;;26.80;32.20;;;;;;5059851;28;46432;-68
2022/07/24 07:15:43;;;;;;;15.00;12.00;;;26.60;32.10;;;;;;5059158;28;46481;-70
2022/07/24 07:18:08;;;;;;;16.03;13.60;;;26.80;31.90;;;;;;5058446;28;46409;-68
2022/07/24 07:20:34;;;;;;;16.63;13.93;;;26.60;32.20;;;;;;5057806;28;46424;-69
2022/07/24 07:23:00;;;;;;;16.33;12.87;;;26.50;32.30;;;;;;5056046;28;46426;-69
2022/07/24 07:25:25;;;;;;;20.10;13.70;;;26.80;31.60;;;;;;5056672;28;46552;-68
2022/07/24 07:27:51;;;;;;;16.80;13.60;;;27.00;31.00;;;;;;5056243;28;47856;-69
2022/07/24 07:30:16;;;;;;;16.30;12.27;;;27.10;30.80;;;;;;5057721;28;46520;-66
2022/07/24 07:32:42;;;;;;;15.00;12.17;;;27.20;30.50;;;;;;5057194;28;46564;-68
2022/07/24 07:35:08;;;;;;;17.50;12.47;;;27.20;30.70;;;;;;5059359;28;46565;-68
2022/07/24 07:37:34;;;;;;;21.03;12.80;;;27.00;30.70;;;;;;5057065;28;46479;-67
2022/07/24 07:40:00;;;;;;;16.67;12.43;;;27.10;30.50;;;;;;5057344;28;46477;-69
2022/07/24 07:42:27;;;;;;;20.70;12.40;;;26.90;30.60;;;;;;5057304;28;46609;-70
2022/07/24 07:44:53;;;;;;;16.97;11.07;;;27.10;30.30;;;;;;5059344;28;46370;-67
2022/07/24 07:47:18;;;;;;;18.40;12.10;;;27.20;29.60;;;;;;5058182;28;46461;-67
2022/07/24 07:49:44;;;;;;;15.40;12.10;;;27.30;29.70;;;;;;5059042;28;46377;-65
2022/07/24 07:52:09;;;;;;;17.60;12.20;;;27.20;29.70;;;;;;5058951;28;46303;-67
2022/07/24 07:54:35;;;;;;;14.00;12.30;;;27.00;30.00;;;;;;5059534;28;46625;-67
2022/07/24 07:57:01;;;;;;;14.10;11.47;;;27.20;29.70;;;;;;5058797;28;46456;-69
2022/07/24 07:59:26;;;;;;;14.80;10.80;;;27.50;29.20;;;;;;5060422;28;46502;-66
2022/07/24 08:01:52;;;;;;;16.57;10.60;;;27.40;29.30;;;;;;5059366;28;46633;-67
2022/07/24 08:04:18;;;;;;;15.77;10.93;;;27.60;28.90;;;;;;5059705;28;46440;-67
2022/07/24 08:06:43;;;;;;;18.37;11.30;;;27.60;28.10;;;;;;5056732;28;46382;-68
2022/07/24 08:09:09;;;;;;;12.20;9.63;;;27.70;28.10;;;;;;5060912;28;46392;-68
2022/07/24 08:11:35;;;;;;;13.90;10.87;;;27.90;27.50;;;;;;5059641;28;46605;-67
2022/07/24 08:14:00;;;;;;;16.43;10.83;;;28.00;27.60;;;;;;5057389;28;46555;-67
2022/07/24 08:16:27;;;;;;;21.00;10.30;;;28.00;27.60;;;;;;5059323;28;47478;-66
2022/07/24 08:18:53;;;;;;;12.00;9.60;;;28.10;27.10;;;;;;5059407;28;46317;-66
2022/07/24 08:21:19;;;;;;;19.13;9.30;;;28.10;26.90;;;;;;5058996;28;46475;-67
2022/07/24 08:23:45;;;;;;;15.57;8.80;;;27.80;27.50;;;;;;5059275;28;46431;-66
2022/07/24 08:26:11;;;;;;;11.60;8.90;;;27.90;27.20;;;;;;5058173;28;46430;-68
2022/07/24 08:28:38;;;;;;;11.10;8.20;;;27.80;27.20;;;;;;5058814;28;46647;-66
2022/07/24 08:31:04;;;;;;;16.50;8.70;;;27.90;26.00;;;;;;5056409;28;46371;-67
2022/07/24 08:33:29;;;;;;;11.37;7.67;;;28.10;25.20;;;;;;5059294;28;46556;-70
2022/07/24 08:35:55;;;;;;;9.77;8.10;;;28.40;24.50;;;;;;5058130;28;48200;-67
2022/07/24 08:38:20;;;;;;;14.20;8.50;;;28.10;24.50;;;;;;5058583;28;46246;-66
2022/07/24 08:40:46;;;;;;;12.23;8.67;;;28.10;24.50;;;;;;5060895;28;47614;-68
2022/07/24 08:43:12;;;;;;;12.80;8.37;;;28.30;24.20;;;;;;5059151;28;46354;-68
2022/07/24 08:45:40;;;;;;;9.57;7.70;;;28.40;23.70;;;;;;5059518;28;46844;-66
2022/07/24 08:48:08;;;;;;;14.67;8.70;;;28.40;23.40;;;;;;5058597;28;45916;-67
2022/07/24 08:50:36;;;;;;;9.40;7.80;;;28.40;23.00;;;;;;5059921;28;46353;-67
2022/07/24 08:53:03;;;;;;;15.03;9.43;;;28.20;23.40;;;;;;5058700;28;46468;-67
2022/07/24 08:55:30;;;;;;;12.93;8.50;;;28.40;23.00;;;;;;5059460;28;46411;-69
2022/07/24 08:57:57;;;;;;;10.00;8.10;;;28.80;22.30;;;;;;5056541;28;46475;-67
2022/07/24 09:00:23;;;;;;;12.20;7.70;;;28.90;21.80;;;;;;5059365;28;46529;-67
2022/07/24 09:02:49;;;;;;;11.50;8.10;;;28.80;21.40;;;;;;5059817;28;46405;-65
2022/07/24 09:05:15;;;;;;;11.87;8.50;;;28.50;21.70;;;;;;5059250;28;47240;-68
2022/07/24 09:07:40;;;;;;;13.63;8.73;;;28.40;21.70;;;;;;5061725;28;46314;-67
2022/07/24 09:10:09;;;;;;;10.07;7.80;;;28.50;21.70;;;;;;5062720;28;45787;-69
2022/07/24 09:12:45;;;;;;;11.60;7.80;;;28.70;21.30;;;;;;5062603;28;46568;-66
2022/07/24 09:15:29;;;;;;;10.47;7.53;;;29.20;20.70;;;;;;5062803;28;47122;-67
2022/07/24 09:17:57;;;;;;;11.60;9.03;;;29.20;19.80;;;;;;5060795;28;46390;-66
2022/07/24 09:20:27;;;;;;;12.87;8.67;;;29.20;19.60;;;;;;5062070;28;46453;-67
2022/07/24 09:22:52;;;;;;;9.13;7.27;;;29.20;20.20;;;;;;5060613;28;46420;-66
2022/07/24 09:25:27;;;;;;;12.80;8.23;;;29.40;19.50;;;;;;5062309;28;46479;-68
2022/07/24 09:28:00;;;;;;;8.90;7.50;;;29.50;19.00;;;;;;5060792;28;46415;-65
2022/07/24 09:30:32;;;;;;;18.03;7.93;;;29.70;19.00;;;;;;5061296;28;46335;-67
2022/07/24 09:33:06;;;;;;;10.20;7.17;;;29.90;19.70;;;;;;5062961;28;46440;-68
2022/07/24 09:35:33;;;;;;;9.70;8.40;;;30.00;19.10;;;;;;5061442;28;46464;-66
2022/07/24 09:38:01;;;;;;;12.43;7.60;;;30.10;17.60;;;;;;5062308;28;45858;-66
2022/07/24 09:40:38;;;;;;;9.90;7.60;;;30.00;17.70;;;;;;5062214;28;46421;-67
2022/07/24 09:43:30;;;;;;;9.73;7.20;;;29.90;17.50;;;;;;5061143;28;46425;-70
2022/07/24 09:45:57;;;;;;;9.10;7.60;;;29.80;17.50;;;;;;5059109;28;46685;-66
2022/07/24 09:48:32;;;;;;;11.80;8.17;;;29.80;17.50;;;;;;5061073;28;46429;-65
2022/07/24 09:51:05;;;;;;;10.57;8.30;;;30.10;17.60;;;;;;5060788;28;46003;-67
2022/07/24 09:53:33;;;;;;;13.00;7.50;;;30.30;17.00;;;;;;5061311;28;46525;-66
2022/07/24 09:56:18;;;;;;;10.30;7.90;;;30.50;17.10;;;;;;5060766;28;46437;-66
2022/07/24 09:58:48;;;;;;;8.93;7.63;;;30.70;17.10;;;;;;5059935;28;46465;-67
2022/07/24 10:01:16;;;;;;;9.00;7.83;;;30.60;16.90;;;;;;5061008;28;46500;-66
2022/07/24 10:03:44;;;;;;;11.23;7.50;;;30.70;16.60;;;;;;5063042;28;46568;-66
2022/07/24 10:06:12;;;;;;;11.80;7.63;;;30.50;16.10;;;;;;5059414;28;46638;-65
2022/07/24 10:08:41;;;;;;;10.20;7.60;;;30.20;16.30;;;;;;5060954;28;46471;-71
2022/07/24 10:11:07;;;;;;;12.10;8.40;;;30.30;16.10;;;;;;5058914;28;46467;-67
2022/07/24 10:13:33;;;;;;;16.53;7.70;;;30.10;16.30;;;;;;5060855;28;46410;-65
2022/07/24 10:16:11;;;;;;;9.90;7.60;;;29.90;16.30;;;;;;5061315;28;47504;-67
2022/07/24 10:18:47;;;;;;;10.63;7.50;;;30.00;16.30;;;;;;5057759;28;46367;-67
2022/07/24 10:21:20;;;;;;;9.67;7.70;;;30.00;15.90;;;;;;5062861;28;46457;-67
2022/07/24 10:23:45;;;;;;;11.80;8.90;;;30.00;15.70;;;;;;5061521;28;46748;-65
2022/07/24 10:26:16;;;;;;;13.70;8.33;;;30.00;15.60;;;;;;5063553;28;46223;-65
2022/07/24 10:28:43;;;;;;;8.70;7.17;;;30.20;15.50;;;;;;5060199;28;46364;-67
2022/07/24 10:31:12;;;;;;;11.80;8.70;;;30.20;15.40;;;;;;5060041;28;46461;-65
2022/07/24 10:33:40;;;;;;;13.53;7.60;;;30.00;15.30;;;;;;5061183;28;46607;-66
2022/07/24 10:36:16;;;;;;;9.70;7.57;;;30.20;15.30;;;;;;5059169;28;46388;-65
2022/07/24 10:38:51;;;;;;;9.53;7.73;;;30.60;14.90;;;;;;5060033;28;46468;-69
2022/07/24 10:41:26;;;;;;;9.03;7.57;;;30.50;15.40;;;;;;5058358;28;46424;-66
2022/07/24 10:44:13;;;;;;;11.63;9.00;;;30.30;14.30;;;;;;5058592;28;45950;-68
2022/07/24 10:46:59;;;;;;;12.03;7.70;;;30.50;13.60;;;;;;5059140;28;46477;-67
2022/07/24 10:49:49;;;;;;;12.90;7.83;;;30.60;13.60;;;;;;5059762;28;46865;-66
2022/07/24 10:52:30;;;;;;;12.57;7.60;;;30.70;13.20;;;;;;5056289;28;46528;-68
2022/07/24 10:55:22;;;;;;;14.17;7.10;;;31.00;12.90;;;;;;5058372;28;46749;-67
2022/07/24 10:58:00;;;;;;;13.70;7.90;;;31.10;12.90;;;;;;5057812;28;46504;-67
2022/07/24 11:00:25;;;;;;;13.83;7.23;;;31.10;12.80;;;;;;5059224;28;46795;-67
2022/07/24 11:03:00;;;;;;;9.57;7.13;;;31.40;12.40;;;;;;5059040;28;46464;-66
2022/07/24 11:05:31;;;;;;;11.17;7.10;;;31.60;11.90;;;;;;5058931;28;46461;-67
2022/07/24 11:08:16;;;;;;;9.43;7.17;;;31.90;11.20;;;;;;5059068;28;46460;-68
2022/07/24 11:10:53;;;;;;;8.00;6.97;;;31.70;10.20;;;;;;5056944;28;46529;-67
2022/07/24 11:13:33;;;;;;;9.60;7.20;;;31.80;10.70;;;;;;5059519;28;46466;-69
2022/07/24 11:16:11;;;;;;;8.97;7.93;;;31.80;10.30;;;;;;5058376;28;46534;-68
2022/07/24 11:18:38;;;;;;;10.47;7.10;;;31.60;10.50;;;;;;5061440;28;46276;-68
2022/07/24 11:21:04;;;;;;;9.10;6.67;;;31.60;10.70;;;;;;5056797;28;46354;-67
2022/07/24 11:23:30;;;;;;;12.13;7.30;;;31.70;10.70;;;;;;5060394;28;46568;-67
2022/07/24 11:26:32;;;;;;;12.17;6.90;;;32.00;10.50;;;;;;5057783;28;46493;-67
2022/07/24 11:29:14;;;;;;;9.83;6.63;;;32.10;9.80;;;;;;5051326;27;46298;-67
2022/07/24 11:31:42;;;;;;;9.27;6.90;;;31.70;10.20;;;;;;5061816;28;46364;-66
2022/07/24 11:34:09;;;;;;;7.77;6.53;;;31.80;9.90;;;;;;5059471;28;46448;-70
2022/07/24 11:36:35;;;;;;;10.90;7.33;;;31.90;9.60;;;;;;5058930;28;46459;-66
2022/07/24 11:39:03;;;;;;;10.53;7.87;;;32.00;9.30;;;;;;5058932;28;46763;-67
2022/07/24 11:41:42;;;;;;;10.07;7.40;;;31.60;9.90;;;;;;5058284;28;46463;-67
2022/07/24 11:44:07;;;;;;;14.47;7.57;;;31.30;10.10;;;;;;5062278;28;46682;-66
2022/07/24 11:46:34;;;;;;;9.20;7.13;;;31.50;10.00;;;;;;5059823;28;46383;-69
2022/07/24 11:49:04;;;;;;;10.50;6.37;;;31.50;9.50;;;;;;5061668;28;47134;-66
2022/07/24 11:51:30;;;;;;;9.60;6.80;;;31.60;9.10;;;;;;5062854;28;46461;-65
2022/07/24 11:53:56;;;;;;;9.37;6.80;;;31.70;9.30;;;;;;5059486;28;46432;-67
2022/07/24 11:56:22;;;;;;;9.80;7.10;;;31.70;9.10;;;;;;5056968;28;46611;-68
2022/07/24 11:58:48;;;;;;;9.57;6.80;;;31.60;9.30;;;;;;5058588;28;47134;-68
2022/07/24 12:01:23;;;;;;;10.50;7.30;;;31.50;9.20;;;;;;5056309;28;45903;-71
2022/07/24 12:03:56;;;;;;;9.03;7.33;;;31.10;9.30;;;;;;5057716;28;46449;-67
2022/07/24 12:06:21;;;;;;;10.97;6.80;;;31.10;9.70;;;;;;5058997;28;46506;-67
2022/07/24 12:08:47;;;;;;;7.87;6.97;;;31.40;9.60;;;;;;5058113;28;46393;-68
2022/07/24 12:11:22;;;;;;;9.13;7.10;;;31.20;9.40;;;;;;5061105;28;46243;-68
2022/07/24 12:13:48;;;;;;;10.10;6.90;;;31.30;9.10;;;;;;5060006;28;46371;-67
2022/07/24 12:16:26;;;;;;;9.03;6.83;;;31.30;9.40;;;;;;5060052;28;46520;-67
2022/07/24 12:18:52;;;;;;;12.47;6.80;;;31.60;8.90;;;;;;5057990;28;46414;-67
2022/07/24 12:21:20;;;;;;;8.87;6.50;;;31.50;8.10;;;;;;5059251;28;46523;-68
2022/07/24 12:23:46;;;;;;;10.30;7.03;;;31.10;8.20;;;;;;5059285;28;46914;-67
2022/07/24 12:26:12;;;;;;;8.90;6.10;;;30.60;8.60;;;;;;5057062;28;46418;-65
2022/07/24 12:28:38;;;;;;;7.53;6.40;;;30.30;9.10;;;;;;5057336;28;46443;-65
2022/07/24 12:31:10;;;;;;;9.00;6.50;;;30.00;9.20;;;;;;5059967;28;46732;-65
2022/07/24 12:33:36;;;;;;;10.60;7.03;;;29.90;9.40;;;;;;5059605;28;46482;-63